createdAt,value
2023-03-28T00:01:02.361Z,2.13
2023-03-28T00:03:30.133Z,2.55
2023-03-28T00:06:00.944Z,3.38
2023-03-28T00:08:28.981Z,2.10
2023-03-28T00:11:08.502Z,2.80
2023-03-28T00:13:36.225Z,2.40
2023-03-28T00:16:04.335Z,2.50
2023-03-28T00:18:32.522Z,4.00
2023-03-28T00:21:00.165Z,2.95
2023-03-28T00:23:28.953Z,3.05
2023-03-28T00:25:56.423Z,3.92
2023-03-28T00:28:23.644Z,2.72
2023-03-28T00:30:51.038Z,2.55
2023-03-28T00:33:18.467Z,2.50
2023-03-28T00:35:45.717Z,2.70
2023-03-28T00:38:13.896Z,2.78
2023-03-28T00:40:42.051Z,4.05
2023-03-28T00:43:13.410Z,2.65
2023-03-28T00:45:41.441Z,2.55
2023-03-28T00:48:15.297Z,3.30
2023-03-28T00:50:46.861Z,2.50
2023-03-28T00:53:15.502Z,2.85
2023-03-28T00:55:45.647Z,3.08
2023-03-28T00:58:15.516Z,2.92
2023-03-28T01:00:47.001Z,3.55
2023-03-28T01:03:16.422Z,2.60
2023-03-28T01:05:44.587Z,3.03
2023-03-28T01:08:20.819Z,3.08
2023-03-28T01:10:48.455Z,4.22
2023-03-28T01:13:17.339Z,2.88
2023-03-28T01:15:44.875Z,2.70
2023-03-28T01:18:13.686Z,3.37
2023-03-28T01:21:08.882Z,3.53
2023-03-28T01:23:36.107Z,3.45
2023-03-28T01:26:19.732Z,2.10
2023-03-28T01:29:05.306Z,3.00
2023-03-28T01:31:46.288Z,2.58
2023-03-28T01:34:57.733Z,2.53
2023-03-28T01:37:44.074Z,2.35
2023-03-28T01:40:32.031Z,2.30
2023-03-28T01:43:39.610Z,2.65
2023-03-28T01:46:12.742Z,2.97
2023-03-28T01:48:57.290Z,3.22
2023-03-28T01:51:37.540Z,2.25
2023-03-28T01:54:12.559Z,2.90
2023-03-28T01:56:52.213Z,2.72
2023-03-28T01:59:37.270Z,2.78
2023-03-28T02:02:43.791Z,3.63
2023-03-28T02:05:25.941Z,3.17
2023-03-28T02:07:54.669Z,3.20
2023-03-28T02:10:33.792Z,2.70
2023-03-28T02:13:28.094Z,3.10
2023-03-28T02:16:11.850Z,3.70
2023-03-28T02:19:00.563Z,4.82
2023-03-28T02:21:39.924Z,2.97
2023-03-28T02:24:21.881Z,2.78
2023-03-28T02:27:08.659Z,2.47
2023-03-28T02:29:56.221Z,2.33
2023-03-28T02:32:35.777Z,2.08
2023-03-28T02:35:05.404Z,2.20
2023-03-28T02:37:55.745Z,2.67
2023-03-28T02:40:23.027Z,2.80
2023-03-28T02:43:01.232Z,2.47
2023-03-28T02:45:32.542Z,2.30
2023-03-28T02:48:06.921Z,2.25
2023-03-28T02:50:44.255Z,3.17
2023-03-28T02:53:14.811Z,3.08
2023-03-28T02:55:49.434Z,2.65
2023-03-28T02:58:41.681Z,2.80
2023-03-28T03:01:10.479Z,2.00
2023-03-28T03:03:38.322Z,1.83
2023-03-28T03:06:06.220Z,2.83
2023-03-28T03:08:33.854Z,2.03
2023-03-28T03:11:01.194Z,2.35
2023-03-28T03:13:28.712Z,2.88
2023-03-28T03:15:56.398Z,1.98
2023-03-28T03:18:24.591Z,1.70
2023-03-28T03:20:51.846Z,2.30
2023-03-28T03:25:50.699Z,2.53
2023-03-28T03:28:22.476Z,3.42
2023-03-28T03:36:22.675Z,2.20
2023-03-28T03:38:50.695Z,3.65
2023-03-28T03:41:22.028Z,2.90
2023-03-28T03:43:49.562Z,2.38
2023-03-28T03:46:16.994Z,2.17
2023-03-28T03:48:49.220Z,2.50
2023-03-28T03:51:17.982Z,2.65
2023-03-28T03:53:46.699Z,1.92
2023-03-28T03:56:17.150Z,3.58
2023-03-28T03:58:58.263Z,2.63
2023-03-28T04:01:30.529Z,2.90
2023-03-28T04:04:08.568Z,2.55
2023-03-28T04:06:59.023Z,2.22
2023-03-28T04:09:27.325Z,2.80
2023-03-28T04:11:59.673Z,3.00
2023-03-28T04:14:27.649Z,4.55
2023-03-28T04:17:16.103Z,2.97
2023-03-28T04:19:45.581Z,3.40
2023-03-28T04:22:13.291Z,5.35
2023-03-28T04:24:49.775Z,3.22
2023-03-28T04:27:31.355Z,3.92
2023-03-28T04:30:00.636Z,3.33
2023-03-28T04:32:59.026Z,3.90
2023-03-28T04:35:29.824Z,3.30
2023-03-28T04:38:00.185Z,4.88
2023-03-28T04:40:28.162Z,4.80
2023-03-28T04:43:15.468Z,3.95
2023-03-28T04:45:49.149Z,4.65
2023-03-28T04:48:18.148Z,5.18
2023-03-28T04:50:45.570Z,4.40
2023-03-28T04:53:14.717Z,3.72
2023-03-28T04:56:02.156Z,4.68
2023-03-28T04:58:30.590Z,4.68
2023-03-28T05:00:58.056Z,4.93
2023-03-28T05:03:54.642Z,4.68
2023-03-28T05:06:21.970Z,4.00
2023-03-28T05:08:49.940Z,4.28
2023-03-28T05:11:17.202Z,4.25
2023-03-28T05:13:44.556Z,4.10
2023-03-28T05:16:23.907Z,3.75
2023-03-28T05:18:51.426Z,4.63
2023-03-28T05:21:24.743Z,3.65
2023-03-28T05:23:53.550Z,3.05
2023-03-28T05:26:24.361Z,4.20
2023-03-28T05:28:52.589Z,4.57
2023-03-28T05:31:19.949Z,4.70
2023-03-28T05:33:53.438Z,4.28
2023-03-28T05:36:33.519Z,4.22
2023-03-28T05:39:00.777Z,3.70
2023-03-28T05:41:28.161Z,4.32
2023-03-28T05:43:55.403Z,4.43
2023-03-28T05:46:40.827Z,4.43
2023-03-28T05:49:08.174Z,4.43
2023-03-28T05:51:35.553Z,3.97
2023-03-28T05:54:02.870Z,4.30
2023-03-28T05:56:33.101Z,4.63
2023-03-28T05:59:01.188Z,4.07
2023-03-28T06:01:29.273Z,4.60
2023-03-28T06:04:01.947Z,5.18
2023-03-28T06:06:30.265Z,5.03
2023-03-28T06:08:57.526Z,4.22
2023-03-28T06:11:27.065Z,4.65
2023-03-28T06:14:07.441Z,4.88
2023-03-28T06:16:35.947Z,4.07
2023-03-28T06:19:16.618Z,4.10
2023-03-28T06:21:49.749Z,3.70
2023-03-28T06:24:17.157Z,3.88
2023-03-28T06:26:45.846Z,5.45
2023-03-28T06:29:17.282Z,4.05
2023-03-28T06:31:47.302Z,4.82
2023-03-28T06:34:14.632Z,3.92
2023-03-28T06:36:55.114Z,3.53
2023-03-28T06:39:23.337Z,4.22
2023-03-28T06:41:55.666Z,4.15
2023-03-28T06:44:30.711Z,3.65
2023-03-28T06:47:14.553Z,4.95
2023-03-28T06:49:41.841Z,5.80
2023-03-28T06:52:47.241Z,4.25
2023-03-28T06:55:16.259Z,3.25
2023-03-28T06:57:43.697Z,3.95
2023-03-28T07:00:23.714Z,4.35
2023-03-28T07:03:09.869Z,5.82
2023-03-28T07:05:39.766Z,4.90
2023-03-28T07:08:10.814Z,4.93
2023-03-28T07:10:39.464Z,4.93
2023-03-28T07:13:07.235Z,5.00
2023-03-28T07:15:36.084Z,5.18
2023-03-28T07:18:05.831Z,4.82
2023-03-28T07:20:33.624Z,5.88
2023-03-28T07:23:00.897Z,6.60
2023-03-28T07:25:29.844Z,6.32
2023-03-28T07:27:57.802Z,6.57
2023-03-28T07:30:25.613Z,6.47
2023-03-28T07:33:02.727Z,5.82
2023-03-28T07:35:40.340Z,4.82
2023-03-28T07:38:11.771Z,6.63
2023-03-28T07:40:50.321Z,6.68
2023-03-28T07:43:17.661Z,5.72
2023-03-28T07:45:47.668Z,5.45
2023-03-28T07:48:14.979Z,5.70
2023-03-28T07:50:42.900Z,5.03
2023-03-28T07:53:14.047Z,6.50
2023-03-28T07:55:54.410Z,6.32
2023-03-28T07:58:27.803Z,6.95
2023-03-28T08:01:04.372Z,8.25
2023-03-28T08:03:37.813Z,5.78
2023-03-28T08:06:13.371Z,6.57
2023-03-28T08:08:42.408Z,6.40
2023-03-28T08:11:28.269Z,6.55
2023-03-28T08:13:55.477Z,6.05
2023-03-28T08:16:24.291Z,4.95
2023-03-28T08:19:03.942Z,5.68
2023-03-28T08:21:47.882Z,6.15
2023-03-28T08:24:25.265Z,5.57
2023-03-28T08:27:02.191Z,5.13
2023-03-28T08:29:29.735Z,5.68
2023-03-28T08:31:57.650Z,5.03
2023-03-28T08:34:25.908Z,5.70
2023-03-28T08:36:57.621Z,5.38
2023-03-28T08:39:27.837Z,4.50
2023-03-28T08:42:10.596Z,5.72
2023-03-28T08:44:53.533Z,4.60
2023-03-28T08:47:31.087Z,4.75
2023-03-28T08:50:04.407Z,4.07
2023-03-28T08:52:32.528Z,4.50
2023-03-28T08:55:01.252Z,3.47
2023-03-28T08:57:30.068Z,4.13
2023-03-28T09:00:00.718Z,3.83
2023-03-28T09:02:29.703Z,4.07
2023-03-28T09:05:12.108Z,3.67
2023-03-28T09:07:59.858Z,4.22
2023-03-28T09:10:48.703Z,4.07
2023-03-28T09:13:22.666Z,4.63
2023-03-28T09:15:53.060Z,3.63
2023-03-28T09:18:25.769Z,4.25
2023-03-28T09:21:00.033Z,4.20
2023-03-28T09:23:34.583Z,4.03
2023-03-28T09:26:25.300Z,4.03
2023-03-28T09:29:03.021Z,4.18
2023-03-28T09:31:35.268Z,4.72
2023-03-28T09:34:07.227Z,3.80
2023-03-28T09:36:49.127Z,5.68
2023-03-28T09:39:27.086Z,5.00
2023-03-28T09:42:07.984Z,4.30
2023-03-28T09:45:14.081Z,4.57
2023-03-28T09:47:50.571Z,3.47
2023-03-28T09:50:21.868Z,4.03
2023-03-28T09:52:56.968Z,3.85
2023-03-28T09:55:27.291Z,5.18
2023-03-28T09:58:12.007Z,4.28
2023-03-28T10:01:07.182Z,3.95
2023-03-28T10:04:11.345Z,3.90
2023-03-28T10:07:10.743Z,3.70
2023-03-28T10:09:50.700Z,2.45
2023-03-28T10:12:21.307Z,2.28
2023-03-28T10:14:48.650Z,3.70
2023-03-28T10:17:37.145Z,3.13
2023-03-28T10:20:11.140Z,3.22
2023-03-28T10:22:40.084Z,3.85
2023-03-28T10:25:08.706Z,2.78
2023-03-28T10:27:37.476Z,2.72
2023-03-28T10:30:25.586Z,2.78
2023-03-28T10:33:10.783Z,3.80
2023-03-28T10:36:23.076Z,3.13
2023-03-28T10:38:50.667Z,3.30
2023-03-28T10:41:27.951Z,3.22
2023-03-28T10:44:19.992Z,2.40
2023-03-28T10:47:02.059Z,2.25
2023-03-28T10:49:45.778Z,2.47
2023-03-28T10:52:23.865Z,2.55
2023-03-28T10:55:07.984Z,2.58
2023-03-28T10:58:08.677Z,2.40
2023-03-28T11:00:52.537Z,2.70
2023-03-28T11:03:22.127Z,2.22
2023-03-28T11:06:08.108Z,1.73
2023-03-28T11:08:37.164Z,2.03
2023-03-28T11:11:15.826Z,3.08
2023-03-28T11:13:58.434Z,2.03
2023-03-28T11:16:45.034Z,1.95
2023-03-28T11:19:42.619Z,2.00
2023-03-28T11:22:16.689Z,2.40
2023-03-28T11:24:57.820Z,1.92
2023-03-28T11:28:12.733Z,3.00
2023-03-28T11:30:47.363Z,2.50
2023-03-28T11:33:48.175Z,3.25
2023-03-28T11:36:24.196Z,2.45
2023-03-28T11:38:54.671Z,3.55
2023-03-28T11:41:24.927Z,3.55
2023-03-28T11:44:20.731Z,5.45
2023-03-28T11:46:54.025Z,5.63
2023-03-28T11:49:34.494Z,7.00
2023-03-28T11:52:24.644Z,8.35
2023-03-28T11:55:02.414Z,4.68
2023-03-28T11:57:36.536Z,5.30
2023-03-28T12:00:33.244Z,5.10
2023-03-28T12:03:04.641Z,4.05
2023-03-28T12:05:36.239Z,4.18
2023-03-28T12:08:04.427Z,2.78
2023-03-28T12:10:36.218Z,3.03
2023-03-28T12:13:11.532Z,2.42
2023-03-28T12:15:48.615Z,3.22
2023-03-28T12:18:28.786Z,2.70
2023-03-28T12:21:06.656Z,2.70
2023-03-28T12:23:51.936Z,3.28
2023-03-28T12:27:10.998Z,2.15
2023-03-28T12:29:57.493Z,4.25
2023-03-28T12:32:27.997Z,2.50
2023-03-28T12:35:18.503Z,2.40
2023-03-28T12:37:54.742Z,2.78
2023-03-28T12:40:41.765Z,3.35
2023-03-28T12:43:09.682Z,2.30
2023-03-28T12:45:40.374Z,2.30
2023-03-28T12:48:10.640Z,3.03
2023-03-28T12:51:01.398Z,4.85
2023-03-28T12:53:32.090Z,3.05
2023-03-28T12:56:01.027Z,4.18
2023-03-28T12:58:34.616Z,3.38
2023-03-28T13:01:08.112Z,3.05
2023-03-28T13:03:41.870Z,5.55
2023-03-28T13:06:18.420Z,6.82
2023-03-28T13:08:51.704Z,5.78
2023-03-28T13:11:19.097Z,3.65
2023-03-28T13:14:15.862Z,2.55
2023-03-28T13:16:47.881Z,2.72
2023-03-28T13:19:18.470Z,2.88
2023-03-28T13:21:49.613Z,2.75
2023-03-28T13:24:26.402Z,3.25
2023-03-28T13:26:56.683Z,2.75
2023-03-28T13:29:47.168Z,2.53
2023-03-28T13:32:16.749Z,2.65
2023-03-28T13:35:10.204Z,2.63
2023-03-28T13:37:43.557Z,2.65
2023-03-28T13:40:29.274Z,2.03
2023-03-28T13:42:59.944Z,2.92
2023-03-28T13:45:29.032Z,2.97
2023-03-28T13:48:06.388Z,2.45
2023-03-28T13:50:39.884Z,2.92
2023-03-28T13:53:07.140Z,3.00
2023-03-28T13:55:34.488Z,2.22
2023-03-28T13:58:02.269Z,2.85
2023-03-28T14:00:31.058Z,2.80
2023-03-28T14:03:03.448Z,3.10
2023-03-28T14:05:32.154Z,2.80
2023-03-28T14:08:20.768Z,3.15
2023-03-28T14:10:48.306Z,2.78
2023-03-28T14:13:27.897Z,3.08
2023-03-28T14:15:55.923Z,2.42
2023-03-28T14:18:26.152Z,2.85
2023-03-28T14:20:54.756Z,2.53
2023-03-28T14:23:30.874Z,3.20
2023-03-28T14:25:59.266Z,2.63
2023-03-28T14:28:28.602Z,3.30
2023-03-28T14:33:24.373Z,3.75
2023-03-28T14:36:03.159Z,3.80
2023-03-28T14:38:35.196Z,2.42
2023-03-28T14:41:09.922Z,3.70
2023-03-28T14:43:37.272Z,4.40
2023-03-28T14:46:08.182Z,3.30
2023-03-28T14:48:37.011Z,3.03
2023-03-28T14:51:05.879Z,3.40
2023-03-28T14:53:37.696Z,3.75
2023-03-28T14:56:10.435Z,3.53
2023-03-28T14:58:38.944Z,3.45
2023-03-28T15:01:07.093Z,3.15
2023-03-28T15:03:38.884Z,4.80
2023-03-28T15:06:08.193Z,3.83
2023-03-28T15:08:37.956Z,3.83
2023-03-28T15:11:08.166Z,4.05
2023-03-28T15:13:39.467Z,4.03
2023-03-28T15:16:08.409Z,3.92
2023-03-28T15:18:46.765Z,5.15
2023-03-28T15:21:14.417Z,6.67
2023-03-28T15:23:44.466Z,7.35
2023-03-28T15:26:29.327Z,6.50
2023-03-28T15:28:57.654Z,3.85
2023-03-28T15:31:25.842Z,4.22
2023-03-28T15:33:53.759Z,3.53
2023-03-28T15:36:32.203Z,4.30
2023-03-28T15:39:20.550Z,3.70
2023-03-28T15:41:48.892Z,3.27
2023-03-28T15:44:35.899Z,5.43
2023-03-28T15:47:07.598Z,5.38
2023-03-28T15:49:36.025Z,6.07
2023-03-28T15:52:05.123Z,4.97
2023-03-28T15:54:33.325Z,4.07
2023-03-28T15:57:03.107Z,3.65
2023-03-28T15:59:35.744Z,3.20
2023-03-28T16:02:18.021Z,5.93
2023-03-28T16:04:58.654Z,4.80
2023-03-28T16:07:26.899Z,6.70
2023-03-28T16:09:54.230Z,4.65
2023-03-28T16:12:21.546Z,4.53
2023-03-28T16:15:11.926Z,4.53
2023-03-28T16:18:00.446Z,5.33
2023-03-28T16:20:37.525Z,5.97
2023-03-28T16:23:06.781Z,4.55
2023-03-28T16:25:34.822Z,5.20
2023-03-28T16:28:02.158Z,4.28
2023-03-28T16:30:31.481Z,7.90
2023-03-28T16:35:28.472Z,5.75
2023-03-28T16:37:56.167Z,6.57
2023-03-28T16:40:23.672Z,5.35
2023-03-28T16:42:51.106Z,5.78
2023-03-28T16:45:20.321Z,6.28
2023-03-28T16:47:48.147Z,13.48
2023-03-28T16:50:15.676Z,6.88
2023-03-28T16:52:43.140Z,7.28
2023-03-28T16:55:11.771Z,6.32
2023-03-28T16:57:39.093Z,6.25
2023-03-28T17:00:07.309Z,8.57
2023-03-28T17:02:34.727Z,6.50
2023-03-28T17:05:02.847Z,6.28
2023-03-28T17:07:30.244Z,7.13
2023-03-28T17:09:57.496Z,6.78
2023-03-28T17:12:25.137Z,7.97
2023-03-28T17:14:52.458Z,6.18
2023-03-28T17:17:22.962Z,6.43
2023-03-28T17:19:50.525Z,7.25
2023-03-28T17:22:17.758Z,8.35
2023-03-28T17:24:46.761Z,6.05
2023-03-28T17:27:14.925Z,6.70
2023-03-28T17:29:42.236Z,7.28
2023-03-28T17:32:09.662Z,7.15
2023-03-28T17:34:37.154Z,7.90
2023-03-28T17:37:04.505Z,8.15
2023-03-28T17:39:32.521Z,7.65
2023-03-28T17:41:59.728Z,8.35
2023-03-28T17:44:27.009Z,8.52
2023-03-28T17:46:56.695Z,6.53
2023-03-28T17:49:24.266Z,8.00
2023-03-28T17:51:51.935Z,8.43
2023-03-28T17:54:19.633Z,7.65
2023-03-28T17:56:46.887Z,7.25
2023-03-28T17:59:16.324Z,7.63
2023-03-28T18:01:43.795Z,10.82
2023-03-28T18:04:11.272Z,8.60
2023-03-28T18:06:38.712Z,8.98
2023-03-28T18:09:05.975Z,8.88
2023-03-28T18:11:34.218Z,8.93
2023-03-28T18:14:01.938Z,8.30
2023-03-28T18:16:29.407Z,8.15
2023-03-28T18:18:57.507Z,10.25
2023-03-28T18:21:25.405Z,10.43
2023-03-28T18:23:52.670Z,7.82
2023-03-28T18:26:19.919Z,8.15
2023-03-28T18:28:47.129Z,7.70
2023-03-28T18:31:15.987Z,7.32
2023-03-28T18:33:44.442Z,7.82
2023-03-28T18:36:12.469Z,8.00
2023-03-28T18:38:42.004Z,7.50
2023-03-28T18:41:13.053Z,7.70
2023-03-28T18:43:42.062Z,6.65
2023-03-28T18:46:09.716Z,7.10
2023-03-28T18:48:37.194Z,7.35
2023-03-28T18:51:06.307Z,8.57
2023-03-28T18:56:01.516Z,7.05
2023-03-28T18:58:28.900Z,7.30
2023-03-28T19:01:00.170Z,5.65
2023-03-28T19:03:28.357Z,6.85
2023-03-28T19:06:03.096Z,7.10
2023-03-28T19:08:30.860Z,6.03
2023-03-28T19:10:59.362Z,5.20
2023-03-28T19:13:27.061Z,5.95
2023-03-28T19:16:04.773Z,5.22
2023-03-28T19:18:33.346Z,4.75
2023-03-28T19:21:01.086Z,4.60
2023-03-28T19:23:29.047Z,5.43
2023-03-28T19:25:56.500Z,5.53
2023-03-28T19:28:23.985Z,5.60
2023-03-28T19:31:02.005Z,4.78
2023-03-28T19:33:29.417Z,5.00
2023-03-28T19:35:57.332Z,4.57
2023-03-28T19:38:26.354Z,5.88
2023-03-28T19:41:00.673Z,6.40
2023-03-28T19:43:28.401Z,6.40
2023-03-28T19:46:01.110Z,6.53
2023-03-28T19:48:28.749Z,5.22
2023-03-28T19:50:55.979Z,7.28
2023-03-28T19:53:23.234Z,5.80
2023-03-28T19:55:58.604Z,6.55
2023-03-28T19:58:26.378Z,5.88
2023-03-28T20:00:53.886Z,5.13
2023-03-28T20:03:21.226Z,6.15
2023-03-28T20:05:48.741Z,5.07
2023-03-28T20:08:17.350Z,5.75
2023-03-28T20:10:45.849Z,5.57
2023-03-28T20:13:13.089Z,4.85
2023-03-28T20:15:41.414Z,4.00
2023-03-28T20:18:14.468Z,4.47
2023-03-28T20:20:42.710Z,4.60
2023-03-28T20:23:11.694Z,4.85
2023-03-28T20:25:39.033Z,4.75
2023-03-28T20:28:10.093Z,6.32
2023-03-28T20:30:38.090Z,6.15
2023-03-28T20:33:05.747Z,4.70
2023-03-28T20:35:33.303Z,5.88
2023-03-28T20:38:00.561Z,5.47
2023-03-28T20:40:28.203Z,5.13
2023-03-28T20:42:57.006Z,5.22
2023-03-28T20:45:24.333Z,5.80
2023-03-28T20:47:58.563Z,5.32
2023-03-28T20:50:34.117Z,4.82
2023-03-28T20:53:02.100Z,6.22
2023-03-28T20:55:29.726Z,6.03
2023-03-28T20:57:57.751Z,5.68
2023-03-28T21:00:25.614Z,6.55
2023-03-28T21:02:53.705Z,6.05
2023-03-28T21:05:22.786Z,5.28
2023-03-28T21:07:50.590Z,5.35
2023-03-28T21:10:19.145Z,4.70
2023-03-28T21:12:47.347Z,4.55
2023-03-28T21:15:15.353Z,4.35
2023-03-28T21:17:42.618Z,4.38
2023-03-28T21:20:11.298Z,4.18
2023-03-28T21:22:38.884Z,3.97
2023-03-28T21:25:06.853Z,4.40
2023-03-28T21:27:34.759Z,5.88
2023-03-28T21:30:06.939Z,4.32
2023-03-28T21:32:34.730Z,3.78
2023-03-28T21:35:04.072Z,4.57
2023-03-28T21:37:31.882Z,4.47
2023-03-28T21:39:59.091Z,3.83
2023-03-28T21:42:27.896Z,4.30
2023-03-28T21:44:55.139Z,2.83
2023-03-28T21:47:22.389Z,3.85
2023-03-28T21:49:49.757Z,3.40
2023-03-28T21:52:17.117Z,4.03
2023-03-28T21:54:44.346Z,4.82
2023-03-28T21:57:11.593Z,3.30
2023-03-28T21:59:41.109Z,3.05
2023-03-28T22:02:08.732Z,3.95
2023-03-28T22:04:36.796Z,3.45
2023-03-28T22:07:04.166Z,3.17
2023-03-28T22:09:31.419Z,3.50
2023-03-28T22:11:59.593Z,3.40
2023-03-28T22:14:27.244Z,3.40
2023-03-28T22:16:55.229Z,3.50
2023-03-28T22:19:22.519Z,3.28
2023-03-28T22:21:49.796Z,3.90
2023-03-28T22:24:17.825Z,3.17
2023-03-28T22:26:46.157Z,3.13
2023-03-28T22:29:13.442Z,3.95
2023-03-28T22:31:40.888Z,3.13
2023-03-28T22:34:08.679Z,3.38
2023-03-28T22:36:35.997Z,3.22
2023-03-28T22:39:03.223Z,3.15
2023-03-28T22:41:31.747Z,3.13
2023-03-28T22:43:59.408Z,3.70
2023-03-28T22:46:26.693Z,3.53
2023-03-28T22:49:00.493Z,3.35
2023-03-28T22:51:28.390Z,3.15
2023-03-28T22:54:00.165Z,3.42
2023-03-28T22:56:27.605Z,3.03
2023-03-28T22:58:55.829Z,3.63
2023-03-28T23:01:26.090Z,3.28
2023-03-28T23:03:53.430Z,3.78
2023-03-28T23:06:20.766Z,3.20
2023-03-28T23:08:48.212Z,3.35
2023-03-28T23:11:15.514Z,3.45
2023-03-28T23:13:42.717Z,3.60
2023-03-28T23:16:10.362Z,3.42
2023-03-28T23:18:38.282Z,3.33
2023-03-28T23:21:06.273Z,3.42
2023-03-28T23:23:33.458Z,3.88
2023-03-28T23:26:00.776Z,3.35
2023-03-28T23:28:28.205Z,4.20
2023-03-28T23:30:55.481Z,3.65
2023-03-28T23:33:22.748Z,3.72
2023-03-28T23:35:50.186Z,2.80
2023-03-28T23:38:17.677Z,3.22
2023-03-28T23:40:46.108Z,3.63
2023-03-28T23:43:13.305Z,3.95
2023-03-28T23:45:40.538Z,3.45
2023-03-28T23:48:09.081Z,2.83
2023-03-28T23:50:36.553Z,3.17
2023-03-28T23:53:04.833Z,3.30
2023-03-28T23:55:32.384Z,3.63
2023-03-28T23:58:02.024Z,3.70
